Time;durP1;ratioP1;P1;durP2;ratioP2;P2;SDS_P1;SDS_P2;PMS_P1;PMS_P2;Temp;Humidity;BMP_temperature;BMP_pressure;BME280_temperature;BME280_humidity;BME280_pressure;Samples;Min_cycle;Max_cycle;Signal;HPM_P1;HPM_P2
2023/03/03 00:00:08;;;;;;;20.40;11.67;;;3.80;99.90;;;;;;5016045;28;20297;-59
2023/03/03 00:02:35;;;;;;;19.20;10.80;;;3.90;99.90;;;;;;5018921;28;20285;-59
2023/03/03 00:05:02;;;;;;;19.03;11.43;;;3.90;99.90;;;;;;4997745;28;20216;-59
2023/03/03 00:07:29;;;;;;;20.53;11.30;;;3.80;99.90;;;;;;5019220;28;20212;-59
2023/03/03 00:09:56;;;;;;;20.93;11.90;;;4.00;99.90;;;;;;5016874;28;20206;-59
2023/03/03 00:12:28;;;;;;;18.17;10.63;;;3.90;99.90;;;;;;5015865;28;20241;-63
2023/03/03 00:14:56;;;;;;;20.50;11.33;;;3.70;99.90;;;;;;5004529;28;20213;-60
2023/03/03 00:17:26;;;;;;;19.40;11.33;;;3.80;99.90;;;;;;5018871;28;20283;-59
2023/03/03 00:19:54;;;;;;;19.37;11.63;;;3.70;99.90;;;;;;5002546;28;20788;-60
2023/03/03 00:22:29;;;;;;;19.30;10.47;;;3.70;99.90;;;;;;5020499;28;20278;-59
2023/03/03 00:25:18;;;;;;;20.87;11.83;;;3.60;99.90;;;;;;5019906;28;20276;-59
2023/03/03 00:27:45;;;;;;;16.30;10.20;;;3.50;99.90;;;;;;5020609;28;20201;-59
2023/03/03 00:30:38;;;;;;;18.37;11.37;;;3.50;99.90;;;;;;5010667;28;20205;-59
2023/03/03 00:33:27;;;;;;;22.97;11.33;;;3.60;99.90;;;;;;5018024;28;20292;-59
2023/03/03 00:36:20;;;;;;;19.63;11.43;;;3.60;99.90;;;;;;5017443;28;20228;-59
2023/03/03 00:38:48;;;;;;;20.00;11.13;;;3.50;99.90;;;;;;5018876;28;20201;-59
2023/03/03 00:41:26;;;;;;;20.97;11.73;;;3.50;99.90;;;;;;5017901;28;20843;-59
2023/03/03 00:43:53;;;;;;;18.20;10.77;;;3.50;99.90;;;;;;5021931;28;20205;-59
2023/03/03 00:46:22;;;;;;;22.80;12.47;;;3.40;99.90;;;;;;5020045;28;20224;-59
2023/03/03 00:48:50;;;;;;;22.27;11.93;;;3.40;99.90;;;;;;5020744;28;20267;-60
2023/03/03 00:51:19;;;;;;;18.83;10.50;;;3.40;99.90;;;;;;5019441;28;20297;-59
2023/03/03 00:53:46;;;;;;;19.47;10.90;;;3.30;99.90;;;;;;5022093;28;20325;-59
2023/03/03 00:56:14;;;;;;;22.87;11.70;;;3.30;99.90;;;;;;5018764;28;20301;-60
2023/03/03 00:58:43;;;;;;;21.13;12.43;;;3.20;99.90;;;;;;5022658;28;20642;-59
2023/03/03 01:01:10;;;;;;;22.73;11.83;;;3.00;99.90;;;;;;5003653;28;20547;-63
2023/03/03 01:03:37;;;;;;;22.10;11.87;;;3.00;99.90;;;;;;5021452;28;20226;-64
2023/03/03 01:06:04;;;;;;;22.07;11.80;;;3.10;99.90;;;;;;5018029;28;20225;-64
2023/03/03 01:08:32;;;;;;;22.37;12.07;;;3.10;99.90;;;;;;5004626;28;20556;-63
2023/03/03 01:11:15;;;;;;;21.33;12.20;;;3.10;99.90;;;;;;5020479;28;20270;-63
2023/03/03 01:13:44;;;;;;;23.10;11.97;;;2.90;99.90;;;;;;5003198;28;20197;-63
2023/03/03 01:16:11;;;;;;;21.40;12.30;;;2.90;99.90;;;;;;5017678;28;20283;-63
2023/03/03 01:18:40;;;;;;;25.43;12.13;;;3.00;99.90;;;;;;5020568;28;20554;-64
2023/03/03 01:21:08;;;;;;;24.67;12.23;;;3.00;99.90;;;;;;5002315;28;20286;-64
2023/03/03 01:23:36;;;;;;;22.27;12.10;;;3.00;99.90;;;;;;5002472;28;20256;-64
2023/03/03 01:26:03;;;;;;;23.07;11.70;;;3.10;99.90;;;;;;5001584;28;20201;-63
2023/03/03 01:28:31;;;;;;;21.70;11.40;;;3.10;99.90;;;;;;5022212;28;20557;-64
2023/03/03 01:31:03;;;;;;;21.43;10.90;;;3.10;99.90;;;;;;5018349;28;20288;-64
2023/03/03 01:33:32;;;;;;;19.60;10.73;;;3.10;99.90;;;;;;5020592;28;20198;-63
2023/03/03 01:36:00;;;;;;;21.13;10.77;;;3.20;99.90;;;;;;5019403;28;20210;-61
2023/03/03 01:38:27;;;;;;;20.33;10.77;;;3.20;99.90;;;;;;5017983;28;20255;-61
2023/03/03 01:40:56;;;;;;;19.70;10.73;;;2.90;99.90;;;;;;5015209;28;20300;-61
2023/03/03 01:43:26;;;;;;;18.03;10.27;;;3.00;99.90;;;;;;5017971;28;20309;-61
2023/03/03 01:45:56;;;;;;;23.07;11.37;;;3.00;99.90;;;;;;5000736;28;20593;-61
2023/03/03 01:48:33;;;;;;;19.17;11.27;;;3.00;99.90;;;;;;5019943;28;20207;-61
2023/03/03 01:51:01;;;;;;;18.73;10.07;;;3.10;99.90;;;;;;5019543;28;20322;-61
2023/03/03 01:53:43;;;;;;;21.03;10.37;;;3.00;99.90;;;;;;5019274;28;20293;-61
2023/03/03 01:56:10;;;;;;;18.37;10.77;;;3.00;99.90;;;;;;4998144;28;20293;-61
2023/03/03 01:58:56;;;;;;;19.10;10.80;;;3.10;99.90;;;;;;5019951;28;20278;-61
2023/03/03 02:01:26;;;;;;;14.13;8.80;;;3.10;99.90;;;;;;5014260;28;20214;-61
2023/03/03 02:03:54;;;;;;;17.83;10.03;;;2.90;99.90;;;;;;4997729;28;20205;-61
2023/03/03 02:06:25;;;;;;;16.63;9.57;;;2.90;99.90;;;;;;5016073;28;20288;-61
2023/03/03 02:09:01;;;;;;;20.10;10.37;;;3.00;99.90;;;;;;5020589;28;20237;-61
2023/03/03 02:11:32;;;;;;;18.83;10.87;;;3.00;99.90;;;;;;5016300;28;20219;-61
2023/03/03 02:13:59;;;;;;;15.83;9.57;;;3.00;99.90;;;;;;5014328;28;20204;-61
2023/03/03 02:16:28;;;;;;;18.67;10.27;;;3.10;99.90;;;;;;4999601;28;20555;-61
2023/03/03 02:18:55;;;;;;;18.90;9.80;;;2.90;99.90;;;;;;4998581;28;20225;-61
2023/03/03 02:21:27;;;;;;;16.83;11.00;;;3.00;99.90;;;;;;5017929;28;20237;-61
2023/03/03 02:24:46;;;;;;;18.60;11.20;;;2.90;99.90;;;;;;5019864;28;20205;-61
2023/03/03 02:27:13;;;;;;;18.50;10.67;;;2.90;99.90;;;;;;4938966;29;20207;-61
2023/03/03 02:29:40;;;;;;;18.17;10.43;;;2.90;99.90;;;;;;4933875;28;20707;-61
2023/03/03 02:32:07;;;;;;;21.10;10.73;;;2.90;99.90;;;;;;4939335;29;20298;-61
2023/03/03 02:34:48;;;;;;;18.13;11.17;;;2.90;99.90;;;;;;4927478;28;20232;-61
2023/03/03 02:37:16;;;;;;;20.00;10.07;;;2.90;99.90;;;;;;4927955;29;20664;-61
2023/03/03 02:39:43;;;;;;;16.87;9.97;;;2.80;99.90;;;;;;4940427;29;20290;-61
2023/03/03 02:42:22;;;;;;;17.50;9.70;;;2.80;99.90;;;;;;4929282;29;20214;-61
2023/03/03 02:44:49;;;;;;;18.83;10.00;;;2.90;99.90;;;;;;4927858;29;20207;-62
2023/03/03 02:47:16;;;;;;;19.00;11.57;;;3.00;99.90;;;;;;4939662;29;20680;-61
2023/03/03 02:49:44;;;;;;;16.50;9.83;;;3.00;99.90;;;;;;4937388;28;20571;-62
2023/03/03 02:52:13;;;;;;;21.03;11.97;;;2.90;99.90;;;;;;4938231;29;20211;-61
2023/03/03 02:54:40;;;;;;;17.37;9.87;;;3.00;99.90;;;;;;4920177;29;20230;-61
2023/03/03 02:57:07;;;;;;;21.47;10.57;;;2.90;99.90;;;;;;4932037;28;20199;-62
2023/03/03 02:59:34;;;;;;;19.60;11.17;;;2.80;99.90;;;;;;4926244;29;20195;-63
2023/03/03 03:02:01;;;;;;;18.37;11.10;;;2.80;99.90;;;;;;5012313;28;20267;-62
2023/03/03 03:04:28;;;;;;;18.77;10.27;;;2.80;99.90;;;;;;5016847;28;20240;-62
2023/03/03 03:06:55;;;;;;;21.77;10.60;;;2.80;99.90;;;;;;5017713;28;20216;-62
2023/03/03 03:09:24;;;;;;;19.30;10.03;;;2.80;99.90;;;;;;5017339;28;20240;-61
2023/03/03 03:11:51;;;;;;;19.47;10.97;;;2.80;99.90;;;;;;5017324;28;20237;-61
2023/03/03 03:14:18;;;;;;;18.60;10.43;;;2.80;99.90;;;;;;5015491;28;20213;-62
2023/03/03 03:16:45;;;;;;;19.30;10.67;;;2.90;99.90;;;;;;5018049;28;20717;-61
2023/03/03 03:19:12;;;;;;;19.73;11.00;;;2.90;99.90;;;;;;5013345;28;20299;-62
2023/03/03 03:21:38;;;;;;;20.37;10.70;;;2.80;99.90;;;;;;5000681;28;20229;-61
2023/03/03 03:24:06;;;;;;;16.37;9.90;;;2.80;99.90;;;;;;5013390;28;20216;-62
2023/03/03 03:26:32;;;;;;;17.97;10.13;;;2.80;99.90;;;;;;5016569;28;20220;-61
2023/03/03 03:28:59;;;;;;;18.10;9.30;;;2.70;99.90;;;;;;5018816;28;20520;-62
2023/03/03 03:31:26;;;;;;;17.80;8.33;;;2.70;99.90;;;;;;5016613;28;20242;-61
2023/03/03 03:33:53;;;;;;;18.30;10.07;;;2.50;99.90;;;;;;5015839;28;20213;-61
2023/03/03 03:36:20;;;;;;;13.87;8.40;;;2.60;99.90;;;;;;4996590;28;20296;-61
2023/03/03 03:38:47;;;;;;;18.33;9.57;;;2.60;99.90;;;;;;5000641;28;20563;-61
2023/03/03 03:41:14;;;;;;;19.40;9.97;;;2.50;99.90;;;;;;4999692;28;20205;-62
2023/03/03 03:43:41;;;;;;;16.03;8.67;;;2.60;99.90;;;;;;5018691;28;20300;-61
2023/03/03 03:46:08;;;;;;;20.40;11.13;;;2.70;99.90;;;;;;5016297;28;20204;-61
2023/03/03 03:48:35;;;;;;;16.53;9.10;;;2.60;99.90;;;;;;5018182;28;20287;-61
2023/03/03 03:51:03;;;;;;;17.10;9.23;;;2.70;99.90;;;;;;4997208;28;20213;-62
2023/03/03 03:53:30;;;;;;;19.77;9.20;;;2.70;99.90;;;;;;5019034;28;20609;-62
2023/03/03 03:55:57;;;;;;;18.60;9.90;;;2.80;99.90;;;;;;5013212;28;20331;-61
2023/03/03 03:58:23;;;;;;;16.67;9.83;;;2.70;99.90;;;;;;5017717;28;20212;-62
2023/03/03 04:00:50;;;;;;;19.67;10.13;;;2.70;99.90;;;;;;5011961;28;20348;-62
2023/03/03 04:03:17;;;;;;;17.20;9.50;;;2.90;99.90;;;;;;5001455;28;20194;-61
2023/03/03 04:05:44;;;;;;;19.47;9.73;;;2.70;99.90;;;;;;4997792;28;20229;-61
2023/03/03 04:08:12;;;;;;;18.17;9.93;;;2.60;99.90;;;;;;5017713;28;20201;-61
2023/03/03 04:10:39;;;;;;;15.00;7.93;;;2.80;99.90;;;;;;5015130;28;21620;-61
2023/03/03 04:13:06;;;;;;;18.03;9.10;;;2.80;99.90;;;;;;5018015;28;20209;-60
2023/03/03 04:15:33;;;;;;;20.80;9.80;;;2.70;99.90;;;;;;5000249;28;20307;-61
2023/03/03 04:18:00;;;;;;;16.80;8.67;;;2.80;99.90;;;;;;5016225;28;20229;-61
2023/03/03 04:20:27;;;;;;;17.30;8.67;;;2.90;99.90;;;;;;5001362;28;20829;-61
2023/03/03 04:22:55;;;;;;;14.07;8.27;;;2.90;99.90;;;;;;5017627;28;20224;-60
2023/03/03 04:25:23;;;;;;;16.37;8.77;;;2.90;99.90;;;;;;5016121;28;20730;-61
2023/03/03 04:27:51;;;;;;;16.57;7.80;;;2.90;99.90;;;;;;5000938;28;20209;-61
2023/03/03 04:30:18;;;;;;;15.83;7.97;;;2.80;99.90;;;;;;5000895;28;20208;-62
2023/03/03 04:32:46;;;;;;;15.23;7.87;;;2.80;99.90;;;;;;5018608;28;20248;-60
2023/03/03 04:35:13;;;;;;;16.20;8.43;;;2.90;99.90;;;;;;5017467;28;20627;-60
2023/03/03 04:37:40;;;;;;;15.27;8.40;;;2.90;99.90;;;;;;5015402;28;20196;-60
2023/03/03 04:40:08;;;;;;;15.30;8.80;;;2.80;99.90;;;;;;4999621;28;20271;-60
2023/03/03 04:42:36;;;;;;;15.83;9.27;;;2.80;99.90;;;;;;5001133;28;20260;-61
2023/03/03 04:45:03;;;;;;;14.63;8.53;;;2.90;99.90;;;;;;4999212;28;20259;-60
2023/03/03 04:47:31;;;;;;;16.40;8.33;;;2.80;99.90;;;;;;5015463;28;20213;-60
2023/03/03 04:49:58;;;;;;;15.23;8.53;;;2.90;99.90;;;;;;5018488;28;20220;-60
2023/03/03 04:52:25;;;;;;;19.77;9.83;;;2.90;99.90;;;;;;5015366;28;20680;-61
2023/03/03 04:54:51;;;;;;;17.60;8.67;;;3.00;99.90;;;;;;5017020;28;20305;-61
2023/03/03 04:57:18;;;;;;;14.20;8.27;;;3.00;99.90;;;;;;5016712;28;20260;-61
2023/03/03 04:59:45;;;;;;;15.10;7.97;;;2.90;99.90;;;;;;5020429;28;20247;-61
2023/03/03 05:02:13;;;;;;;17.63;9.27;;;2.90;99.90;;;;;;5001336;28;20618;-61
2023/03/03 05:04:40;;;;;;;15.70;8.43;;;2.80;99.90;;;;;;5013991;28;20214;-61
2023/03/03 05:07:07;;;;;;;16.33;8.90;;;2.80;99.90;;;;;;5000667;28;20212;-61
2023/03/03 05:09:34;;;;;;;16.03;8.87;;;3.00;99.90;;;;;;5003303;28;20287;-61
2023/03/03 05:12:01;;;;;;;17.13;9.23;;;3.00;99.90;;;;;;5004380;28;20644;-62
2023/03/03 05:14:28;;;;;;;16.37;9.40;;;3.10;99.90;;;;;;5021150;28;20205;-60
2023/03/03 05:16:55;;;;;;;15.07;8.77;;;2.90;99.90;;;;;;4655909;28;10001118;-61
2023/03/03 05:19:23;;;;;;;18.10;9.13;;;3.00;99.90;;;;;;5006718;28;20260;-60
2023/03/03 05:21:49;;;;;;;15.97;9.13;;;3.10;99.90;;;;;;5011567;28;20232;-60
2023/03/03 05:24:17;;;;;;;16.07;8.73;;;3.10;99.90;;;;;;5012251;28;20211;-60
2023/03/03 05:26:43;;;;;;;15.40;8.37;;;3.00;99.90;;;;;;5018354;28;20288;-59
2023/03/03 05:29:10;;;;;;;15.57;8.90;;;2.90;99.90;;;;;;5021563;28;20297;-60
2023/03/03 05:31:37;;;;;;;15.07;8.83;;;2.90;99.90;;;;;;5002337;28;20295;-59
2023/03/03 05:34:04;;;;;;;16.07;8.77;;;3.10;99.90;;;;;;5012436;28;20213;-60
2023/03/03 05:36:31;;;;;;;17.17;8.73;;;3.00;99.90;;;;;;5004088;28;20213;-60
2023/03/03 05:38:58;;;;;;;14.53;8.67;;;3.00;99.90;;;;;;5018974;28;20247;-59
2023/03/03 05:41:24;;;;;;;13.67;8.83;;;2.90;99.90;;;;;;5016136;28;20659;-59
2023/03/03 05:43:51;;;;;;;17.60;9.00;;;2.90;99.90;;;;;;5023137;28;20212;-60
2023/03/03 05:46:18;;;;;;;16.07;8.57;;;3.00;99.90;;;;;;5020754;28;20216;-60
2023/03/03 05:48:45;;;;;;;17.50;8.77;;;2.90;99.90;;;;;;5019227;28;20712;-60
2023/03/03 05:51:12;;;;;;;17.20;8.47;;;3.00;99.90;;;;;;5021970;28;20240;-60
2023/03/03 05:53:40;;;;;;;17.47;9.13;;;3.10;99.90;;;;;;5019502;28;20240;-60
2023/03/03 05:56:07;;;;;;;16.10;9.33;;;3.10;99.90;;;;;;5019782;28;20307;-60
2023/03/03 05:58:33;;;;;;;17.30;9.50;;;3.10;99.90;;;;;;5021125;28;20711;-65
2023/03/03 06:01:00;;;;;;;20.60;10.77;;;3.10;99.90;;;;;;5015146;28;20247;-64
2023/03/03 06:03:27;;;;;;;16.50;9.13;;;3.10;99.90;;;;;;5016209;28;20202;-64
2023/03/03 06:05:54;;;;;;;16.13;8.57;;;3.10;99.90;;;;;;5019976;28;20576;-64
2023/03/03 06:08:21;;;;;;;17.67;9.47;;;3.10;99.90;;;;;;5010081;28;20292;-64
2023/03/03 06:10:48;;;;;;;20.43;9.77;;;3.20;99.90;;;;;;5015476;28;20231;-65
2023/03/03 06:13:15;;;;;;;20.50;9.70;;;3.20;99.90;;;;;;5018662;28;20209;-65
2023/03/03 06:15:42;;;;;;;22.87;10.43;;;3.20;99.90;;;;;;5011057;28;20219;-65
2023/03/03 06:18:09;;;;;;;19.73;10.30;;;3.20;99.90;;;;;;5001249;28;20565;-65
2023/03/03 06:20:37;;;;;;;20.67;11.10;;;3.10;99.90;;;;;;5019999;28;20252;-60
2023/03/03 06:23:04;;;;;;;21.17;9.60;;;3.10;99.90;;;;;;5015346;28;20201;-59
2023/03/03 06:25:34;;;;;;;20.20;10.27;;;3.10;99.90;;;;;;5002022;28;20240;-60
2023/03/03 06:28:02;;;;;;;17.10;10.27;;;3.10;99.90;;;;;;5011592;28;20243;-60
2023/03/03 06:30:29;;;;;;;20.33;10.10;;;3.10;99.90;;;;;;5011537;28;20209;-61
2023/03/03 06:32:56;;;;;;;19.97;9.57;;;3.20;99.90;;;;;;4994715;28;20218;-61
2023/03/03 06:35:23;;;;;;;19.47;10.37;;;3.10;99.90;;;;;;5000739;28;20223;-60
2023/03/03 06:37:50;;;;;;;20.80;10.00;;;3.20;99.90;;;;;;5018823;28;20204;-60
2023/03/03 06:40:17;;;;;;;19.03;9.70;;;3.20;99.90;;;;;;5016046;28;20264;-60
2023/03/03 06:42:44;;;;;;;20.47;10.00;;;3.20;99.90;;;;;;5018112;28;20243;-61
2023/03/03 06:45:12;;;;;;;20.13;10.37;;;3.20;99.90;;;;;;4998390;28;20695;-61
2023/03/03 06:47:39;;;;;;;18.83;9.90;;;3.10;99.90;;;;;;5014603;28;20229;-60
2023/03/03 06:50:07;;;;;;;18.33;9.80;;;3.10;99.90;;;;;;5017235;28;20221;-61
2023/03/03 06:52:34;;;;;;;19.43;9.90;;;3.10;99.90;;;;;;5015003;28;20618;-60
2023/03/03 06:55:11;;;;;;;19.47;10.13;;;3.10;99.90;;;;;;5017494;28;20672;-61
2023/03/03 06:57:38;;;;;;;20.67;9.67;;;3.20;99.90;;;;;;5018017;28;20235;-60
2023/03/03 07:00:19;;;;;;;17.87;8.87;;;3.10;99.90;;;;;;5005152;28;20594;-60
2023/03/03 07:02:52;;;;;;;20.00;9.23;;;3.00;99.90;;;;;;5017165;28;20212;-60
2023/03/03 07:05:19;;;;;;;19.93;9.30;;;3.10;99.90;;;;;;5003546;28;20553;-59
2023/03/03 07:07:46;;;;;;;18.37;9.10;;;3.10;99.90;;;;;;5001589;28;20196;-59
2023/03/03 07:10:22;;;;;;;21.00;10.23;;;3.10;99.90;;;;;;5001605;28;20298;-59
2023/03/03 07:12:49;;;;;;;19.33;9.53;;;3.20;99.90;;;;;;5017233;28;20291;-60
2023/03/03 07:15:28;;;;;;;20.23;8.80;;;3.20;99.90;;;;;;4999930;28;20213;-59
2023/03/03 07:17:59;;;;;;;20.20;8.87;;;3.00;99.90;;;;;;5015506;28;20225;-59
2023/03/03 07:20:37;;;;;;;17.13;8.80;;;3.10;99.90;;;;;;5020344;28;20296;-59
2023/03/03 07:23:34;;;;;;;15.97;7.77;;;2.90;99.90;;;;;;5019645;28;20727;-59
2023/03/03 07:26:01;;;;;;;20.00;8.83;;;3.10;99.90;;;;;;5012218;28;20205;-59
2023/03/03 07:28:31;;;;;;;13.30;7.13;;;3.10;99.90;;;;;;5016426;28;20248;-58
2023/03/03 07:30:58;;;;;;;15.67;7.50;;;2.90;99.90;;;;;;5014895;28;20573;-59
2023/03/03 07:33:36;;;;;;;15.47;8.53;;;2.80;99.90;;;;;;5016378;28;20200;-58
2023/03/03 07:36:05;;;;;;;18.83;8.47;;;2.90;99.90;;;;;;4987441;28;20223;-59
2023/03/03 07:38:46;;;;;;;14.10;7.47;;;3.10;99.90;;;;;;5017888;28;20204;-59
2023/03/03 07:41:19;;;;;;;16.43;7.60;;;3.00;99.90;;;;;;5013687;28;20695;-59
2023/03/03 07:43:55;;;;;;;16.33;8.13;;;2.90;99.90;;;;;;5008522;28;20694;-59
2023/03/03 07:46:29;;;;;;;13.93;7.70;;;3.00;99.90;;;;;;4997898;28;20614;-59
2023/03/03 07:48:59;;;;;;;16.50;7.83;;;3.10;99.90;;;;;;5000296;28;20249;-59
2023/03/03 07:51:30;;;;;;;17.37;8.80;;;3.10;99.90;;;;;;5015480;28;20208;-59
2023/03/03 07:54:27;;;;;;;15.83;8.83;;;3.10;99.90;;;;;;5003638;28;20204;-59
2023/03/03 07:57:10;;;;;;;18.30;8.50;;;3.20;99.90;;;;;;5014078;28;20773;-59
2023/03/03 07:59:44;;;;;;;18.73;8.90;;;3.10;99.90;;;;;;4997381;28;21901;-60
2023/03/03 08:02:32;;;;;;;17.00;8.23;;;3.20;99.90;;;;;;5015096;28;20683;-59
2023/03/03 08:04:59;;;;;;;21.70;9.00;;;3.40;99.90;;;;;;4997442;28;20756;-59
2023/03/03 08:07:30;;;;;;;18.53;8.50;;;3.30;99.90;;;;;;5011106;28;20687;-59
2023/03/03 08:09:59;;;;;;;12.53;7.23;;;3.50;99.90;;;;;;5006982;28;20297;-60
2023/03/03 08:12:40;;;;;;;16.83;8.10;;;3.40;99.90;;;;;;5008636;28;20203;-60
2023/03/03 08:15:23;;;;;;;15.23;7.63;;;3.60;99.90;;;;;;5005904;28;20256;-60
2023/03/03 08:17:52;;;;;;;12.20;6.87;;;3.50;99.90;;;;;;4992199;28;21511;-61
2023/03/03 08:20:28;;;;;;;15.80;7.17;;;3.40;99.90;;;;;;4985576;28;20212;-60
2023/03/03 08:22:55;;;;;;;12.90;6.83;;;3.40;99.90;;;;;;5007052;28;20785;-59
2023/03/03 08:25:22;;;;;;;14.37;5.93;;;3.40;99.90;;;;;;4999255;28;20329;-59
2023/03/03 08:27:49;;;;;;;13.67;6.47;;;3.30;99.90;;;;;;4996302;28;20206;-60
2023/03/03 08:30:16;;;;;;;13.00;7.40;;;3.30;99.90;;;;;;5008981;28;20582;-59
2023/03/03 08:32:45;;;;;;;12.90;6.20;;;3.40;99.90;;;;;;5014797;28;20625;-60
2023/03/03 08:35:11;;;;;;;13.87;7.13;;;3.40;99.90;;;;;;5012413;28;20218;-59
2023/03/03 08:37:38;;;;;;;15.60;6.23;;;3.40;99.90;;;;;;5017437;28;20374;-59
2023/03/03 08:40:06;;;;;;;11.20;6.10;;;3.50;99.90;;;;;;4999082;28;20582;-60
2023/03/03 08:42:33;;;;;;;9.83;6.13;;;3.50;99.90;;;;;;4987691;28;20232;-60
2023/03/03 08:45:00;;;;;;;12.37;5.87;;;3.60;99.90;;;;;;5013769;28;20752;-59
2023/03/03 08:47:26;;;;;;;13.23;6.40;;;3.70;99.90;;;;;;5021527;28;20237;-59
2023/03/03 08:49:53;;;;;;;12.80;6.37;;;3.70;99.90;;;;;;4995287;28;20275;-59
2023/03/03 08:52:20;;;;;;;14.17;6.47;;;3.80;99.90;;;;;;4999799;28;21405;-60
2023/03/03 08:54:47;;;;;;;12.37;6.07;;;3.90;99.90;;;;;;5001926;28;20673;-60
2023/03/03 08:57:14;;;;;;;10.80;5.37;;;3.90;99.90;;;;;;5016256;28;20341;-59
2023/03/03 08:59:40;;;;;;;9.83;4.90;;;3.90;99.90;;;;;;5017715;28;20246;-59
2023/03/03 09:02:07;;;;;;;8.20;5.03;;;3.70;99.90;;;;;;5010995;28;20342;-60
2023/03/03 09:04:34;;;;;;;12.07;5.63;;;3.70;99.90;;;;;;5002021;28;20207;-59
2023/03/03 09:07:01;;;;;;;11.43;5.57;;;3.60;99.90;;;;;;5013568;28;20208;-59
2023/03/03 09:09:28;;;;;;;8.40;5.27;;;3.60;99.90;;;;;;5015073;28;20238;-59
2023/03/03 09:12:12;;;;;;;9.60;4.80;;;3.70;99.90;;;;;;5014448;28;20223;-59
2023/03/03 09:14:38;;;;;;;10.53;4.97;;;3.80;99.90;;;;;;5011317;28;20211;-59
2023/03/03 09:17:28;;;;;;;10.73;5.80;;;3.90;99.90;;;;;;4998558;28;20222;-59
2023/03/03 09:20:01;;;;;;;10.83;4.80;;;3.80;99.90;;;;;;5013702;28;20213;-59
2023/03/03 09:22:31;;;;;;;11.73;5.53;;;3.90;99.90;;;;;;5020422;28;20239;-60
2023/03/03 09:24:59;;;;;;;10.03;5.13;;;3.90;99.90;;;;;;5015757;28;20650;-60
2023/03/03 09:27:33;;;;;;;8.63;5.30;;;4.00;99.90;;;;;;5014031;28;20282;-59
2023/03/03 09:30:15;;;;;;;9.00;4.57;;;3.90;99.90;;;;;;5014950;28;20204;-59
2023/03/03 09:32:42;;;;;;;9.03;4.77;;;3.90;99.90;;;;;;5018443;28;20273;-59
2023/03/03 09:35:30;;;;;;;7.67;4.40;;;3.90;99.90;;;;;;5015311;28;20657;-60
2023/03/03 09:37:57;;;;;;;9.57;4.97;;;4.00;99.90;;;;;;5019252;28;20586;-61
2023/03/03 09:40:59;;;;;;;9.63;4.50;;;4.10;99.90;;;;;;4997620;28;20227;-60
2023/03/03 09:43:26;;;;;;;11.00;4.83;;;4.20;99.90;;;;;;5012474;28;20298;-61
2023/03/03 09:46:21;;;;;;;10.50;4.87;;;4.20;99.90;;;;;;4996421;28;20334;-60
2023/03/03 09:48:55;;;;;;;7.93;4.70;;;4.20;99.90;;;;;;5000940;28;20307;-60
2023/03/03 09:51:34;;;;;;;8.43;4.93;;;4.20;99.90;;;;;;5010124;28;20210;-60
2023/03/03 09:54:22;;;;;;;9.37;4.37;;;4.40;99.90;;;;;;4990811;28;20255;-59
2023/03/03 09:57:37;;;;;;;8.67;5.17;;;4.60;99.90;;;;;;5012604;28;20226;-60
2023/03/03 10:00:09;;;;;;;8.80;4.70;;;4.50;99.90;;;;;;4989582;28;20718;-60
2023/03/03 10:02:45;;;;;;;10.70;4.87;;;4.50;99.90;;;;;;5010343;28;20209;-59
2023/03/03 10:05:40;;;;;;;12.87;4.90;;;4.50;99.90;;;;;;5011286;28;20276;-59
2023/03/03 10:08:25;;;;;;;10.57;4.67;;;4.60;99.90;;;;;;4996402;28;20233;-59
2023/03/03 10:11:28;;;;;;;7.83;5.03;;;4.80;99.90;;;;;;4996441;28;20299;-59
2023/03/03 10:14:03;;;;;;;9.03;5.00;;;4.90;99.90;;;;;;5001668;28;20214;-61
2023/03/03 10:16:49;;;;;;;6.77;4.50;;;5.00;99.90;;;;;;5002110;28;20361;-60
2023/03/03 10:19:36;;;;;;;7.87;4.80;;;5.20;99.90;;;;;;5003669;28;20228;-62
2023/03/03 10:22:27;;;;;;;7.90;5.13;;;5.20;99.90;;;;;;5009373;28;20238;-60
2023/03/03 10:25:22;;;;;;;6.97;4.13;;;5.20;99.90;;;;;;5004276;28;20200;-59
2023/03/03 10:27:55;;;;;;;6.43;4.33;;;5.40;99.90;;;;;;4998619;28;20204;-60
2023/03/03 10:30:31;;;;;;;7.67;4.37;;;5.50;99.90;;;;;;4986576;28;20210;-61
2023/03/03 10:33:56;;;;;;;8.77;4.67;;;5.70;99.90;;;;;;5009800;28;20218;-60
2023/03/03 10:36:52;;;;;;;9.57;4.20;;;5.40;99.90;;;;;;5004070;28;20667;-59
2023/03/03 10:39:56;;;;;;;9.77;5.17;;;5.50;99.90;;;;;;5010226;28;20212;-60
2023/03/03 10:42:44;;;;;;;7.77;4.80;;;5.60;99.90;;;;;;5014284;28;20215;-59
2023/03/03 10:45:49;;;;;;;8.97;4.70;;;5.80;99.90;;;;;;4999065;28;20278;-60
2023/03/03 10:48:49;;;;;;;7.03;4.23;;;6.10;99.90;;;;;;5004718;28;21179;-59
2023/03/03 10:51:42;;;;;;;7.30;4.40;;;6.10;99.90;;;;;;4989621;28;20510;-59
2023/03/03 10:54:33;;;;;;;8.03;4.23;;;6.50;4.40;;;;;;4994682;28;20210;-60
2023/03/03 10:57:18;;;;;;;7.90;4.30;;;6.40;99.90;;;;;;5011338;28;20213;-59
2023/03/03 11:00:04;;;;;;;6.73;4.13;;;6.70;99.90;;;;;;5011194;28;20201;-60
2023/03/03 11:02:40;;;;;;;7.30;4.50;;;7.00;99.90;;;;;;4986699;28;20220;-60
2023/03/03 11:05:35;;;;;;;7.13;4.17;;;7.10;99.90;;;;;;4998958;28;20201;-61
2023/03/03 11:08:12;;;;;;;6.27;3.70;;;7.00;99.90;;;;;;5009229;28;20245;-61
2023/03/03 11:11:06;;;;;;;8.23;4.13;;;7.40;99.90;;;;;;4997205;28;20211;-61
2023/03/03 11:13:55;;;;;;;7.60;4.10;;;7.80;99.90;;;;;;5011051;28;20209;-61
2023/03/03 11:16:43;;;;;;;5.60;4.33;;;8.10;99.90;;;;;;5008661;28;20298;-61
2023/03/03 11:19:24;;;;;;;5.67;3.63;;;8.70;99.90;;;;;;5006628;28;20235;-61
2023/03/03 11:22:32;;;;;;;7.63;4.27;;;9.20;99.90;;;;;;5006279;28;20318;-60
2023/03/03 11:25:16;;;;;;;9.77;4.40;;;9.10;99.90;;;;;;5007329;28;20844;-61
2023/03/03 11:27:52;;;;;;;8.90;4.40;;;9.40;99.90;;;;;;5009558;28;20244;-61
2023/03/03 11:30:44;;;;;;;8.03;4.33;;;9.80;99.90;;;;;;5001201;28;20227;-61
2023/03/03 11:33:29;;;;;;;8.43;4.13;;;10.10;99.90;;;;;;5004221;28;20207;-65
2023/03/03 11:36:29;;;;;;;7.30;4.33;;;10.50;99.90;;;;;;5011260;28;20239;-63
2023/03/03 11:39:00;;;;;;;6.27;4.30;;;10.90;99.90;;;;;;5010354;28;20197;-62
2023/03/03 11:41:35;;;;;;;7.73;3.90;;;9.50;99.90;;;;;;5015321;28;20929;-62
2023/03/03 11:44:28;;;;;;;6.43;4.03;;;8.80;99.90;;;;;;5006375;28;20203;-62
2023/03/03 11:47:26;;;;;;;6.07;3.60;;;9.00;99.90;;;;;;5011614;28;20256;-62
2023/03/03 11:50:55;;;;;;;5.93;3.77;;;8.80;99.90;;;;;;5010158;28;21574;-62
2023/03/03 11:53:46;;;;;;;6.83;4.20;;;8.50;99.90;;;;;;4935930;29;20297;-62
2023/03/03 11:56:37;;;;;;;6.50;3.90;;;8.20;99.90;;;;;;5010304;28;20196;-62
2023/03/03 11:59:13;;;;;;;5.70;4.10;;;8.20;99.90;;;;;;4996537;28;20218;-64
2023/03/03 12:01:40;;;;;;;4.70;3.67;;;8.80;99.90;;;;;;5010687;28;20299;-62
2023/03/03 12:04:14;;;;;;;6.60;3.57;;;9.50;99.90;;;;;;5010479;28;20204;-62
2023/03/03 12:07:13;;;;;;;5.67;3.83;;;9.90;1.00;;;;;;5005332;28;20236;-62
2023/03/03 12:10:12;;;;;;;5.67;3.83;;;10.30;99.90;;;;;;5010642;28;20581;-62
2023/03/03 12:12:44;;;;;;;6.00;3.33;;;9.90;99.90;;;;;;5014239;28;20214;-61
2023/03/03 12:15:31;;;;;;;6.90;3.87;;;11.00;99.90;;;;;;5010606;28;20608;-61
2023/03/03 12:18:15;;;;;;;7.73;3.87;;;11.10;1.00;;;;;;5012191;28;20874;-62
2023/03/03 12:21:19;;;;;;;5.00;3.80;;;11.60;99.90;;;;;;5012762;28;20208;-62
2023/03/03 12:24:10;;;;;;;6.77;3.43;;;11.90;99.90;;;;;;4996407;28;20205;-62
2023/03/03 12:27:24;;;;;;;5.47;3.47;;;11.70;99.90;;;;;;5011089;28;20271;-62
2023/03/03 12:30:06;;;;;;;4.87;3.20;;;10.90;99.90;;;;;;4975213;28;20205;-62
2023/03/03 12:32:38;;;;;;;7.87;3.80;;;11.20;99.90;;;;;;5011958;28;22112;-62
2023/03/03 12:35:10;;;;;;;5.93;3.67;;;10.90;99.90;;;;;;5010334;28;20231;-62
2023/03/03 12:38:03;;;;;;;5.43;2.93;;;10.70;99.90;;;;;;5009708;28;20294;-62
2023/03/03 12:40:39;;;;;;;5.37;3.57;;;11.00;99.90;;;;;;5011762;28;20333;-61
2023/03/03 12:43:15;;;;;;;3.93;3.03;;;11.10;99.90;;;;;;5015738;28;20213;-62
2023/03/03 12:45:49;;;;;;;6.60;3.33;;;11.10;99.90;;;;;;5012785;28;20237;-62
2023/03/03 12:48:22;;;;;;;6.17;3.27;;;12.20;99.90;;;;;;5015617;28;20729;-62
2023/03/03 12:50:59;;;;;;;3.63;2.80;;;12.70;99.90;;;;;;5000984;28;20234;-62
2023/03/03 12:53:45;;;;;;;6.97;3.57;;;12.60;99.90;;;;;;5012550;28;20237;-62
2023/03/03 12:56:17;;;;;;;5.63;2.87;;;12.40;99.90;;;;;;5006390;28;20211;-62
2023/03/03 12:59:12;;;;;;;5.27;2.97;;;12.90;99.90;;;;;;5010974;28;20682;-62
2023/03/03 13:01:42;;;;;;;3.93;2.70;;;13.60;99.90;;;;;;5002093;28;20206;-62
2023/03/03 13:04:16;;;;;;;5.53;3.13;;;13.20;99.90;;;;;;5004786;28;20663;-61
2023/03/03 13:07:00;;;;;;;5.10;3.17;;;12.00;99.90;;;;;;5008922;28;20202;-66
2023/03/03 13:09:38;;;;;;;4.30;3.13;;;12.20;99.90;;;;;;5011139;28;20199;-63
2023/03/03 13:12:23;;;;;;;3.97;2.90;;;13.20;99.90;;;;;;5010880;28;20328;-63
2023/03/03 13:15:11;;;;;;;3.90;2.70;;;12.60;99.90;;;;;;5007777;28;20292;-62
2023/03/03 13:18:15;;;;;;;3.33;2.57;;;13.20;99.90;;;;;;4988982;28;20235;-62
2023/03/03 13:20:52;;;;;;;3.83;3.00;;;12.40;99.90;;;;;;4994153;28;20681;-62